Terminal Aerodrome Forecast
Issued by NWS

Home | Current Version | Previous Version | Text Only | Print | Product List | Glossary On
Versions: 1 2 3 4 5 6 7 8 9 10 11 12 13 14
000
FTUS42 TJSJ 292341
TAFJMZ
TAF
TJMZ 292341Z 3000/3024 27012KT P6SM SCT030 BKN040
     FM300130 06005KT P6SM SCT040 SCT150
     FM301330 28006KT P6SM SCT030 SCT150
     FM301630 27010KT P6SM VCTS SCT025CB BKN040
     FM302330 07006KT P6SM FEW025 SCT040 SCT100
      AMD NOT SKED=

USA.gov is the U.S. government's official web portal to all federal, state and local government web resources and services.